SDM2505 UUWW-HEGN
Flight info
| Callsign | SDM2505 |
|---|---|
| Flight time | N/A |
| Altitude | 35000 |
| Route | TOGMO M56 ABAGI W21 NIMTA DCT SL A964 NOKLI N72 GORNU B945 MKL A955 LURIS N37 SARPI DCT ODALI DCT GEM A285 MUT R55 KETEK DCT TOMBI A16 CVO DCT SOKOT |
| Aircraft | B748/H-V/N |
Departure
| Time | 2026-04-29 18:15 |
|---|---|
| Airport | Vnukovo International Airport (UUWW) |
Arrival
| Time | N/A |
|---|---|
| Airport | Hurghada International Airport (HEGN) |
| Time | Latitude | Longitude | Altitude | Speed | Heading |
|---|---|---|---|---|---|
| 2026-04-29 17:56 | 55.60273 | 37.27955 | 691 ft | 0 kts | 92° |
| 2026-04-29 18:07 | 55.60273 | 37.27949 | 701 ft | 4 kts | 91° |
| 2026-04-29 18:07 | 55.60274 | 37.27928 | 691 ft | 4 kts | 96° |
| 2026-04-29 18:07 | 55.60277 | 37.27881 | 691 ft | 4 kts | 99° |
| 2026-04-29 18:07 | 55.60282 | 37.27835 | 691 ft | 3 kts | 99° |
| 2026-04-29 18:08 | 55.60282 | 37.27828 | 691 ft | 3 kts | 99° |
| 2026-04-29 18:10 | 55.60279 | 37.27837 | 690 ft | 2 kts | 117° |
| 2026-04-29 18:10 | 55.60264 | 37.27852 | 690 ft | 3 kts | 158° |
| 2026-04-29 18:10 | 55.60208 | 37.27863 | 692 ft | 14 kts | 172° |
| 2026-04-29 18:10 | 55.60114 | 37.27953 | 692 ft | 15 kts | 131° |
| 2026-04-29 18:11 | 55.60076 | 37.28136 | 695 ft | 19 kts | 92° |
| 2026-04-29 18:11 | 55.60088 | 37.28368 | 698 ft | 19 kts | 79° |
| 2026-04-29 18:11 | 55.60153 | 37.28542 | 694 ft | 16 kts | 47° |
| 2026-04-29 18:11 | 55.60199 | 37.28680 | 697 ft | 7 kts | 98° |
| 2026-04-29 18:12 | 55.60185 | 37.28729 | 696 ft | 4 kts | 118° |
| 2026-04-29 18:12 | 55.60170 | 37.28776 | 692 ft | 5 kts | 118° |
| 2026-04-29 18:12 | 55.60134 | 37.28853 | 692 ft | 9 kts | 146° |
| 2026-04-29 18:12 | 55.60046 | 37.28899 | 695 ft | 18 kts | 168° |
| 2026-04-29 18:13 | 55.59927 | 37.28940 | 693 ft | 17 kts | 169° |
| 2026-04-29 18:13 | 55.59828 | 37.28975 | 693 ft | 12 kts | 178° |
| 2026-04-29 18:13 | 55.59793 | 37.28963 | 695 ft | 4 kts | 211° |
| 2026-04-29 18:13 | 55.59772 | 37.28895 | 691 ft | 9 kts | 248° |
| 2026-04-29 18:14 | 55.59751 | 37.28799 | 691 ft | 0 kts | 248° |
| 2026-04-29 18:14 | 55.59743 | 37.28761 | 692 ft | 19 kts | 248° |
| 2026-04-29 18:14 | 55.59602 | 37.28130 | 691 ft | 91 kts | 248° |
| 2026-04-29 18:14 | 55.59284 | 37.26725 | 693 ft | 152 kts | 248° |
| 2026-04-29 18:15 | 55.58835 | 37.24781 | 927 ft | 177 kts | 246° |
| 2026-04-29 18:15 | 55.58140 | 37.22933 | 1488 ft | 183 kts | 233° |
| 2026-04-29 18:15 | 55.57261 | 37.21222 | 1797 ft | 197 kts | 229° |
| 2026-04-29 18:15 | 55.56404 | 37.19340 | 2309 ft | 195 kts | 239° |
| 2026-04-29 18:16 | 55.55662 | 37.17261 | 2592 ft | 207 kts | 243° |
| 2026-04-29 18:16 | 55.54862 | 37.15037 | 2798 ft | 224 kts | 232° |
| 2026-04-29 18:16 | 55.53513 | 37.13496 | 3011 ft | 242 kts | 196° |
| 2026-04-29 18:16 | 55.51809 | 37.13020 | 3157 ft | 262 kts | 188° |
| 2026-04-29 18:17 | 55.49970 | 37.12524 | 3789 ft | 269 kts | 187° |
| 2026-04-29 18:17 | 55.48110 | 37.12721 | 4564 ft | 270 kts | 160° |
| 2026-04-29 18:17 | 55.46476 | 37.14323 | 5305 ft | 271 kts | 142° |
| 2026-04-29 18:17 | 55.44986 | 37.16400 | 5984 ft | 275 kts | 139° |
| 2026-04-29 18:18 | 55.43489 | 37.18541 | 6671 ft | 279 kts | 141° |
| 2026-04-29 18:18 | 55.41933 | 37.20627 | 7329 ft | 282 kts | 142° |
| 2026-04-29 18:18 | 55.40370 | 37.22682 | 7938 ft | 285 kts | 142° |
| 2026-04-29 18:18 | 55.38781 | 37.24801 | 8572 ft | 288 kts | 142° |
| 2026-04-29 18:19 | 55.37182 | 37.26968 | 9190 ft | 291 kts | 139° |
| 2026-04-29 18:19 | 55.35751 | 37.29496 | 9783 ft | 294 kts | 133° |
| 2026-04-29 18:19 | 55.34326 | 37.32116 | 10291 ft | 299 kts | 133° |
| 2026-04-29 18:19 | 55.32852 | 37.34817 | 10538 ft | 314 kts | 133° |
| 2026-04-29 18:20 | 55.31546 | 37.37971 | 10724 ft | 328 kts | 112° |
| 2026-04-29 18:20 | 55.30833 | 37.41819 | 10851 ft | 343 kts | 102° |
| 2026-04-29 18:20 | 55.30318 | 37.46018 | 10993 ft | 359 kts | 100° |
| 2026-04-29 18:20 | 55.29764 | 37.50363 | 11403 ft | 367 kts | 103° |
| 2026-04-29 18:21 | 55.29100 | 37.54733 | 11914 ft | 372 kts | 104° |
| 2026-04-29 18:21 | 55.28431 | 37.59083 | 12450 ft | 375 kts | 103° |
| 2026-04-29 18:21 | 55.27696 | 37.63508 | 12989 ft | 379 kts | 112° |
| 2026-04-29 18:21 | 55.26312 | 37.67468 | 13541 ft | 382 kts | 131° |
| 2026-04-29 18:22 | 55.24328 | 37.70603 | 14088 ft | 385 kts | 144° |
| 2026-04-29 18:22 | 55.22090 | 37.73223 | 14542 ft | 388 kts | 148° |
| 2026-04-29 18:22 | 55.19823 | 37.75718 | 15006 ft | 390 kts | 147° |
| 2026-04-29 18:22 | 55.17588 | 37.78474 | 15475 ft | 393 kts | 143° |
| 2026-04-29 18:23 | 55.15532 | 37.81674 | 15924 ft | 396 kts | 134° |
| 2026-04-29 18:23 | 55.13649 | 37.85215 | 16380 ft | 399 kts | 133° |
| 2026-04-29 18:23 | 55.11774 | 37.88774 | 16828 ft | 401 kts | 134° |
| 2026-04-29 18:23 | 55.09823 | 37.92281 | 17286 ft | 404 kts | 135° |
| 2026-04-29 18:24 | 55.07844 | 37.95794 | 17723 ft | 406 kts | 135° |
| 2026-04-29 18:24 | 55.05878 | 37.99372 | 18166 ft | 409 kts | 134° |
| 2026-04-29 18:24 | 55.03934 | 38.02937 | 18566 ft | 411 kts | 134° |
| 2026-04-29 18:24 | 55.01930 | 38.06546 | 18934 ft | 413 kts | 135° |
| 2026-04-29 18:25 | 54.99905 | 38.10142 | 19279 ft | 415 kts | 135° |
| 2026-04-29 18:25 | 54.97881 | 38.13755 | 19639 ft | 417 kts | 135° |
| 2026-04-29 18:25 | 54.95858 | 38.17388 | 19972 ft | 419 kts | 134° |
| 2026-04-29 18:25 | 54.93820 | 38.21034 | 20307 ft | 421 kts | 135° |
| 2026-04-29 18:26 | 54.91793 | 38.24639 | 20618 ft | 422 kts | 135° |
| 2026-04-29 18:26 | 54.89728 | 38.28308 | 20937 ft | 424 kts | 134° |
| 2026-04-29 18:26 | 54.87658 | 38.31987 | 21228 ft | 426 kts | 134° |
| 2026-04-29 18:26 | 54.85617 | 38.35677 | 21507 ft | 427 kts | 130° |
| 2026-04-29 18:27 | 54.83944 | 38.39946 | 21804 ft | 428 kts | 119° |
| 2026-04-29 18:27 | 54.82487 | 38.44486 | 22070 ft | 430 kts | 117° |
| 2026-04-29 18:27 | 54.81084 | 38.49010 | 22329 ft | 431 kts | 118° |
| 2026-04-29 18:27 | 54.79616 | 38.53569 | 22574 ft | 433 kts | 119° |
| 2026-04-29 18:28 | 54.78113 | 38.58110 | 22832 ft | 434 kts | 119° |
| 2026-04-29 18:28 | 54.76407 | 38.62430 | 23090 ft | 436 kts | 131° |
| 2026-04-29 18:28 | 54.74965 | 38.64868 | 23263 ft | 437 kts | 141° |
| 2026-04-29 18:28 | 54.71585 | 38.68718 | 23564 ft | 439 kts | 149° |
| 2026-04-29 18:29 | 54.69824 | 38.70507 | 23707 ft | 441 kts | 149° |
| 2026-04-29 18:29 | 54.67178 | 38.73181 | 23876 ft | 442 kts | 148° |
| 2026-04-29 18:29 | 54.64529 | 38.75942 | 24040 ft | 444 kts | 148° |
| 2026-04-29 18:29 | 54.61888 | 38.78725 | 24211 ft | 445 kts | 148° |
| 2026-04-29 18:30 | 54.59222 | 38.81491 | 24372 ft | 446 kts | 148° |
| 2026-04-29 18:30 | 54.56547 | 38.84247 | 24517 ft | 448 kts | 148° |
| 2026-04-29 18:30 | 54.53898 | 38.86991 | 24685 ft | 449 kts | 148° |
| 2026-04-29 18:30 | 54.51216 | 38.89776 | 24838 ft | 450 kts | 148° |
| 2026-04-29 18:31 | 54.48522 | 38.92561 | 25004 ft | 451 kts | 148° |
| 2026-04-29 18:31 | 54.45823 | 38.95338 | 25128 ft | 452 kts | 148° |
| 2026-04-29 18:31 | 54.43149 | 38.98090 | 25271 ft | 453 kts | 148° |
| 2026-04-29 18:31 | 54.40615 | 39.01285 | 25433 ft | 452 kts | 135° |
| 2026-04-29 18:32 | 54.38552 | 39.05343 | 25579 ft | 450 kts | 123° |
| 2026-04-29 18:32 | 54.35840 | 39.14968 | 25888 ft | 449 kts | 111° |
| 2026-04-29 18:32 | 54.34674 | 39.19879 | 26014 ft | 450 kts | 110° |
| 2026-04-29 18:33 | 54.33488 | 39.24865 | 26135 ft | 451 kts | 111° |
| 2026-04-29 18:33 | 54.32281 | 39.29843 | 26267 ft | 452 kts | 111° |
| 2026-04-29 18:33 | 54.31063 | 39.34832 | 26392 ft | 453 kts | 111° |
| 2026-04-29 18:33 | 54.29851 | 39.39821 | 26513 ft | 454 kts | 111° |
| 2026-04-29 18:34 | 54.28652 | 39.44766 | 26630 ft | 455 kts | 111° |
| 2026-04-29 18:34 | 54.27830 | 39.48142 | 26709 ft | 455 kts | 111° |
| 2026-04-29 18:34 | 54.26201 | 39.54790 | 26863 ft | 456 kts | 111° |
| 2026-04-29 18:34 | 54.24969 | 39.59813 | 26987 ft | 457 kts | 111° |
| 2026-04-29 18:35 | 54.23749 | 39.64781 | 27109 ft | 458 kts | 111° |
| 2026-04-29 18:35 | 54.22510 | 39.69819 | 27233 ft | 459 kts | 111° |
| 2026-04-29 18:35 | 54.21264 | 39.74861 | 27365 ft | 460 kts | 111° |
| 2026-04-29 18:35 | 54.20032 | 39.79841 | 27490 ft | 461 kts | 111° |
| 2026-04-29 18:36 | 54.18778 | 39.84898 | 27624 ft | 461 kts | 111° |
| 2026-04-29 18:36 | 54.17521 | 39.89959 | 27757 ft | 462 kts | 111° |
| 2026-04-29 18:36 | 54.16262 | 39.95010 | 27899 ft | 463 kts | 111° |
| 2026-04-29 18:36 | 54.14997 | 40.00077 | 28051 ft | 464 kts | 111° |
| 2026-04-29 18:37 | 54.13726 | 40.05155 | 28207 ft | 465 kts | 111° |
| 2026-04-29 18:37 | 54.12465 | 40.10185 | 28370 ft | 466 kts | 111° |
| 2026-04-29 18:37 | 54.11336 | 40.15351 | 28542 ft | 465 kts | 105° |
| 2026-04-29 18:37 | 54.10419 | 40.20648 | 28700 ft | 466 kts | 104° |
| 2026-04-29 18:38 | 54.09522 | 40.25973 | 28870 ft | 467 kts | 104° |
| 2026-04-29 18:38 | 54.08604 | 40.31298 | 29044 ft | 468 kts | 105° |
| 2026-04-29 18:38 | 54.07677 | 40.36558 | 29239 ft | 470 kts | 105° |
| 2026-04-29 18:38 | 54.06738 | 40.41906 | 29429 ft | 471 kts | 105° |
| 2026-04-29 18:39 | 54.05803 | 40.47278 | 29620 ft | 472 kts | 105° |
| 2026-04-29 18:39 | 54.04859 | 40.52682 | 29816 ft | 474 kts | 105° |
| 2026-04-29 18:39 | 54.03909 | 40.58062 | 30028 ft | 476 kts | 105° |
| 2026-04-29 18:39 | 54.02959 | 40.63421 | 30235 ft | 477 kts | 105° |
| 2026-04-29 18:40 | 54.01997 | 40.68856 | 30433 ft | 479 kts | 105° |
| 2026-04-29 18:40 | 54.01044 | 40.74232 | 30603 ft | 481 kts | 106° |
| 2026-04-29 18:40 | 54.00068 | 40.79705 | 30792 ft | 483 kts | 106° |
| 2026-04-29 18:40 | 53.99086 | 40.85196 | 30992 ft | 486 kts | 106° |
| 2026-04-29 18:41 | 53.96110 | 41.01748 | 31587 ft | 494 kts | 107° |
| 2026-04-29 18:41 | 53.95178 | 41.07376 | 31800 ft | 496 kts | 105° |
| 2026-04-29 18:42 | 53.94253 | 41.13050 | 32028 ft | 500 kts | 106° |
| 2026-04-29 18:42 | 53.93281 | 41.18758 | 32282 ft | 503 kts | 106° |
| 2026-04-29 18:42 | 53.92334 | 41.24476 | 32619 ft | 504 kts | 106° |
| 2026-04-29 18:42 | 53.91418 | 41.30147 | 32994 ft | 505 kts | 106° |
| 2026-04-29 18:43 | 53.90474 | 41.35901 | 33381 ft | 507 kts | 107° |
| 2026-04-29 18:43 | 53.89502 | 41.41683 | 33775 ft | 508 kts | 107° |
| 2026-04-29 18:43 | 53.88541 | 41.47406 | 34170 ft | 510 kts | 107° |
| 2026-04-29 18:43 | 53.87577 | 41.53208 | 34503 ft | 511 kts | 107° |
| 2026-04-29 18:44 | 53.86609 | 41.59005 | 34859 ft | 512 kts | 107° |
| 2026-04-29 18:44 | 53.85625 | 41.64836 | 35133 ft | 515 kts | 108° |
| 2026-04-29 18:44 | 53.83638 | 41.76564 | 35171 ft | 516 kts | 108° |
| 2026-04-29 18:45 | 53.81649 | 41.88191 | 35170 ft | 517 kts | 108° |
| 2026-04-29 18:45 | 53.79630 | 41.99904 | 35167 ft | 517 kts | 108° |
| 2026-04-29 18:46 | 53.77606 | 42.11584 | 35166 ft | 518 kts | 108° |
| 2026-04-29 18:46 | 53.75577 | 42.23204 | 35165 ft | 518 kts | 108° |
| 2026-04-29 18:47 | 53.73520 | 42.34917 | 35167 ft | 518 kts | 108° |
| 2026-04-29 18:47 | 53.71456 | 42.46588 | 35162 ft | 519 kts | 108° |
| 2026-04-29 18:48 | 53.69123 | 42.58106 | 35196 ft | 515 kts | 120° |
| 2026-04-29 18:48 | 53.64899 | 42.67617 | 35193 ft | 507 kts | 141° |
| 2026-04-29 18:49 | 53.62112 | 42.71237 | 35195 ft | 502 kts | 152° |
| 2026-04-29 18:49 | 53.59035 | 42.73935 | 35190 ft | 497 kts | 159° |
| 2026-04-29 18:49 | 53.52686 | 42.78545 | 35183 ft | 496 kts | 160° |
| 2026-04-29 18:50 | 53.46369 | 42.83074 | 35183 ft | 496 kts | 160° |
| 2026-04-29 18:50 | 53.40018 | 42.87647 | 35179 ft | 495 kts | 160° |
| 2026-04-29 18:51 | 53.33699 | 42.92159 | 35174 ft | 495 kts | 160° |
| 2026-04-29 18:51 | 53.27348 | 42.96693 | 35175 ft | 495 kts | 160° |
| 2026-04-29 18:52 | 53.21030 | 43.01181 | 35173 ft | 494 kts | 160° |
| 2026-04-29 18:52 | 53.14735 | 43.05643 | 35169 ft | 493 kts | 160° |
| 2026-04-29 18:53 | 53.08461 | 43.10312 | 35178 ft | 493 kts | 160° |
| 2026-04-29 18:53 | 53.02161 | 43.14933 | 35174 ft | 493 kts | 159° |
| 2026-04-29 18:54 | 52.95934 | 43.19586 | 35172 ft | 493 kts | 160° |
| 2026-04-29 18:54 | 52.89658 | 43.24195 | 35171 ft | 492 kts | 160° |
| 2026-04-29 18:55 | 52.83415 | 43.28805 | 35169 ft | 492 kts | 160° |
| 2026-04-29 18:55 | 52.77146 | 43.33397 | 35171 ft | 491 kts | 160° |
| 2026-04-29 18:56 | 52.70920 | 43.37955 | 35173 ft | 491 kts | 160° |
| 2026-04-29 18:56 | 52.64676 | 43.42506 | 35183 ft | 490 kts | 160° |
| 2026-04-29 18:57 | 52.58427 | 43.47048 | 35181 ft | 489 kts | 160° |
| 2026-04-29 18:57 | 52.52225 | 43.51543 | 35173 ft | 488 kts | 160° |
| 2026-04-29 18:58 | 52.46006 | 43.56034 | 35173 ft | 487 kts | 161° |
| 2026-04-29 18:58 | 52.39833 | 43.60482 | 35171 ft | 485 kts | 161° |
| 2026-04-29 18:59 | 52.33636 | 43.64929 | 35178 ft | 484 kts | 161° |
| 2026-04-29 18:59 | 52.27495 | 43.69325 | 35175 ft | 483 kts | 161° |
| 2026-04-29 19:00 | 52.21327 | 43.73725 | 35175 ft | 482 kts | 161° |
| 2026-04-29 19:00 | 52.15213 | 43.78077 | 35182 ft | 480 kts | 161° |
| 2026-04-29 19:01 | 52.09118 | 43.82398 | 35183 ft | 479 kts | 161° |
| 2026-04-29 19:01 | 52.03006 | 43.86721 | 35184 ft | 478 kts | 161° |
| 2026-04-29 19:02 | 51.97927 | 43.90302 | 35183 ft | 477 kts | 161° |
| 2026-04-29 19:02 | 51.90837 | 43.95287 | 35183 ft | 476 kts | 161° |
| 2026-04-29 19:03 | 51.84739 | 43.99562 | 35184 ft | 476 kts | 161° |
| 2026-04-29 19:03 | 51.78692 | 44.03786 | 35185 ft | 476 kts | 161° |
| 2026-04-29 19:04 | 51.72602 | 44.08030 | 35186 ft | 475 kts | 162° |
| 2026-04-29 19:04 | 51.66514 | 44.12259 | 35186 ft | 475 kts | 162° |
| 2026-04-29 19:05 | 51.60473 | 44.16444 | 35189 ft | 476 kts | 162° |
| 2026-04-29 19:05 | 51.54373 | 44.20656 | 35190 ft | 475 kts | 162° |
| 2026-04-29 19:06 | 51.48313 | 44.24830 | 35190 ft | 476 kts | 162° |
| 2026-04-29 19:07 | 51.39175 | 44.31099 | 35189 ft | 475 kts | 162° |
| 2026-04-29 19:07 | 51.33112 | 44.35245 | 35192 ft | 475 kts | 162° |
| 2026-04-29 19:08 | 51.27006 | 44.39406 | 35186 ft | 475 kts | 162° |
| 2026-04-29 19:08 | 51.20945 | 44.43527 | 35187 ft | 475 kts | 162° |
| 2026-04-29 19:09 | 51.14814 | 44.47236 | 35213 ft | 467 kts | 172° |
| 2026-04-29 19:09 | 51.08445 | 44.49297 | 35205 ft | 465 kts | 174° |
| 2026-04-29 19:10 | 51.02112 | 44.51299 | 35197 ft | 466 kts | 174° |
| 2026-04-29 19:10 | 50.95760 | 44.53304 | 35188 ft | 465 kts | 174° |
| 2026-04-29 19:11 | 50.89410 | 44.55301 | 35186 ft | 465 kts | 174° |
| 2026-04-29 19:11 | 50.83064 | 44.57292 | 35185 ft | 464 kts | 174° |
| 2026-04-29 19:12 | 50.76727 | 44.59275 | 35199 ft | 464 kts | 174° |
| 2026-04-29 19:12 | 50.70400 | 44.61248 | 35186 ft | 463 kts | 174° |
| 2026-04-29 19:13 | 50.64082 | 44.63215 | 35189 ft | 463 kts | 174° |
| 2026-04-29 19:13 | 50.57807 | 44.65162 | 35192 ft | 462 kts | 174° |
| 2026-04-29 19:14 | 50.51499 | 44.67114 | 35188 ft | 462 kts | 174° |
| 2026-04-29 19:14 | 50.45158 | 44.69071 | 35190 ft | 461 kts | 174° |
| 2026-04-29 19:15 | 50.38914 | 44.70992 | 35187 ft | 460 kts | 174° |
| 2026-04-29 19:15 | 50.32632 | 44.72921 | 35189 ft | 460 kts | 174° |
| 2026-04-29 19:16 | 50.26344 | 44.74845 | 35191 ft | 460 kts | 174° |
| 2026-04-29 19:16 | 50.21125 | 44.76440 | 35188 ft | 460 kts | 174° |
| 2026-04-29 19:17 | 50.13788 | 44.78673 | 35191 ft | 460 kts | 174° |
| 2026-04-29 19:17 | 50.08568 | 44.80259 | 35189 ft | 460 kts | 174° |
| 2026-04-29 19:18 | 50.02300 | 44.82158 | 35193 ft | 459 kts | 174° |
| 2026-04-29 19:18 | 49.96027 | 44.84053 | 35192 ft | 459 kts | 174° |
| 2026-04-29 19:19 | 49.89760 | 44.85943 | 35191 ft | 458 kts | 174° |
| 2026-04-29 19:19 | 49.83501 | 44.87824 | 35198 ft | 458 kts | 174° |
| 2026-04-29 19:20 | 49.77245 | 44.89700 | 35197 ft | 457 kts | 174° |
| 2026-04-29 19:20 | 49.71000 | 44.91567 | 35193 ft | 457 kts | 174° |
| 2026-04-29 19:21 | 49.64759 | 44.93428 | 35204 ft | 457 kts | 174° |
| 2026-04-29 19:21 | 49.58521 | 44.95284 | 35193 ft | 456 kts | 174° |
| 2026-04-29 19:22 | 49.52294 | 44.97131 | 35199 ft | 456 kts | 174° |
| 2026-04-29 19:22 | 49.46068 | 44.98973 | 35196 ft | 455 kts | 174° |
| 2026-04-29 19:23 | 49.39890 | 45.00797 | 35198 ft | 455 kts | 174° |
| 2026-04-29 19:23 | 49.33679 | 45.02625 | 35195 ft | 454 kts | 174° |
| 2026-04-29 19:24 | 49.27478 | 45.04446 | 35194 ft | 453 kts | 174° |
| 2026-04-29 19:24 | 49.21292 | 45.06258 | 35195 ft | 452 kts | 174° |
| 2026-04-29 19:25 | 49.15115 | 45.08061 | 35197 ft | 452 kts | 174° |
| 2026-04-29 19:25 | 49.08933 | 45.09864 | 35196 ft | 452 kts | 174° |
| 2026-04-29 19:26 | 49.02748 | 45.11661 | 35192 ft | 452 kts | 174° |
| 2026-04-29 19:26 | 48.96571 | 45.13452 | 35192 ft | 452 kts | 174° |
| 2026-04-29 19:27 | 48.90392 | 45.15239 | 35198 ft | 451 kts | 174° |
| 2026-04-29 19:27 | 48.84220 | 45.17020 | 35196 ft | 451 kts | 174° |
| 2026-04-29 19:28 | 48.78088 | 45.18784 | 35192 ft | 451 kts | 174° |
| 2026-04-29 19:28 | 48.71916 | 45.20556 | 35183 ft | 451 kts | 174° |
| 2026-04-29 19:29 | 48.65750 | 45.22321 | 35166 ft | 451 kts | 174° |
| 2026-04-29 19:29 | 48.59576 | 45.24084 | 35163 ft | 451 kts | 174° |
| 2026-04-29 19:30 | 48.53412 | 45.25841 | 35166 ft | 451 kts | 174° |
| 2026-04-29 19:30 | 48.47241 | 45.27594 | 35191 ft | 451 kts | 174° |
| 2026-04-29 19:31 | 48.41065 | 45.28605 | 35216 ft | 443 kts | 186° |
| 2026-04-29 19:31 | 48.35063 | 45.27061 | 35213 ft | 435 kts | 200° |
| 2026-04-29 19:32 | 48.29296 | 45.24273 | 35207 ft | 435 kts | 200° |
| 2026-04-29 19:32 | 48.23532 | 45.21473 | 35206 ft | 435 kts | 200° |
| 2026-04-29 19:33 | 48.17801 | 45.18703 | 35205 ft | 435 kts | 200° |
| 2026-04-29 19:33 | 48.12030 | 45.15918 | 35203 ft | 436 kts | 200° |
| 2026-04-29 19:34 | 48.06111 | 45.13926 | 35212 ft | 441 kts | 187° |
| 2026-04-29 19:34 | 47.99937 | 45.14485 | 35208 ft | 451 kts | 172° |
| 2026-04-29 19:35 | 47.93975 | 45.17753 | 35205 ft | 463 kts | 159° |
| 2026-04-29 19:35 | 47.88216 | 45.22052 | 35205 ft | 463 kts | 159° |
| 2026-04-29 19:36 | 47.82460 | 45.26364 | 35192 ft | 463 kts | 159° |
| 2026-04-29 19:36 | 47.76703 | 45.30652 | 35186 ft | 462 kts | 159° |
| 2026-04-29 19:37 | 47.70954 | 45.34931 | 35186 ft | 462 kts | 159° |
| 2026-04-29 19:37 | 47.65200 | 45.39200 | 35176 ft | 462 kts | 159° |
| 2026-04-29 19:38 | 47.59485 | 45.43429 | 35180 ft | 462 kts | 159° |
| 2026-04-29 19:38 | 47.53731 | 45.47678 | 35176 ft | 462 kts | 159° |
| 2026-04-29 19:39 | 47.47979 | 45.51914 | 35175 ft | 462 kts | 159° |
| 2026-04-29 19:39 | 47.42225 | 45.56142 | 35178 ft | 462 kts | 159° |
| 2026-04-29 19:40 | 47.36463 | 45.60364 | 35172 ft | 462 kts | 159° |
| 2026-04-29 19:40 | 47.30699 | 45.64579 | 35170 ft | 462 kts | 159° |
| 2026-04-29 19:41 | 47.24939 | 45.68780 | 35172 ft | 462 kts | 159° |
| 2026-04-29 19:41 | 47.19185 | 45.72978 | 35169 ft | 462 kts | 159° |
| 2026-04-29 19:42 | 47.13431 | 45.77184 | 35169 ft | 462 kts | 159° |
| 2026-04-29 19:42 | 47.07673 | 45.81371 | 35167 ft | 462 kts | 159° |
| 2026-04-29 19:43 | 47.01915 | 45.85555 | 35169 ft | 462 kts | 159° |
| 2026-04-29 19:43 | 46.96156 | 45.89725 | 35171 ft | 461 kts | 159° |
| 2026-04-29 19:44 | 46.90403 | 45.93884 | 35169 ft | 461 kts | 159° |
| 2026-04-29 19:44 | 46.84648 | 45.98031 | 35178 ft | 461 kts | 159° |
| 2026-04-29 19:45 | 46.78887 | 46.02175 | 35172 ft | 461 kts | 159° |
| 2026-04-29 19:45 | 46.73128 | 46.06307 | 35165 ft | 461 kts | 159° |
| 2026-04-29 19:46 | 46.67368 | 46.10429 | 35164 ft | 461 kts | 159° |
| 2026-04-29 19:46 | 46.61646 | 46.14515 | 35168 ft | 461 kts | 159° |
| 2026-04-29 19:47 | 46.55873 | 46.18627 | 35165 ft | 462 kts | 159° |
| 2026-04-29 19:47 | 46.50093 | 46.22735 | 35170 ft | 462 kts | 159° |
| 2026-04-29 19:48 | 46.44307 | 46.26837 | 35170 ft | 463 kts | 159° |
| 2026-04-29 19:48 | 46.38520 | 46.30930 | 35171 ft | 463 kts | 159° |
| 2026-04-29 19:49 | 46.32728 | 46.35016 | 35169 ft | 463 kts | 159° |
| 2026-04-29 19:49 | 46.26929 | 46.39099 | 35166 ft | 464 kts | 159° |
| 2026-04-29 19:50 | 46.21128 | 46.43173 | 35170 ft | 463 kts | 159° |
| 2026-04-29 19:50 | 46.15331 | 46.47234 | 35170 ft | 463 kts | 159° |
| 2026-04-29 19:51 | 46.09528 | 46.51290 | 35167 ft | 463 kts | 159° |
| 2026-04-29 19:51 | 46.03769 | 46.55318 | 35165 ft | 464 kts | 159° |
| 2026-04-29 19:52 | 45.97962 | 46.59371 | 35174 ft | 464 kts | 159° |
| 2026-04-29 19:52 | 45.92153 | 46.63418 | 35161 ft | 464 kts | 159° |
| 2026-04-29 19:53 | 45.86350 | 46.67465 | 35165 ft | 464 kts | 159° |
| 2026-04-29 19:53 | 45.80535 | 46.71504 | 35164 ft | 464 kts | 159° |
| 2026-04-29 19:54 | 45.71826 | 46.77539 | 35164 ft | 463 kts | 159° |
| 2026-04-29 19:54 | 45.66015 | 46.81554 | 35160 ft | 464 kts | 159° |
| 2026-04-29 19:55 | 45.60191 | 46.85569 | 35165 ft | 465 kts | 159° |
| 2026-04-29 19:55 | 45.54358 | 46.89581 | 35163 ft | 465 kts | 159° |
| 2026-04-29 19:56 | 45.48529 | 46.93584 | 35163 ft | 465 kts | 159° |
| 2026-04-29 19:56 | 45.42699 | 46.97593 | 35157 ft | 465 kts | 159° |
| 2026-04-29 19:57 | 45.37847 | 47.00915 | 35156 ft | 465 kts | 159° |
| 2026-04-29 19:57 | 45.31061 | 47.05556 | 35158 ft | 466 kts | 159° |
| 2026-04-29 19:58 | 45.25217 | 47.09540 | 35160 ft | 466 kts | 159° |
| 2026-04-29 19:58 | 45.19370 | 47.13519 | 35158 ft | 467 kts | 159° |
| 2026-04-29 19:59 | 45.13509 | 47.17497 | 35159 ft | 467 kts | 159° |
| 2026-04-29 19:59 | 45.07646 | 47.21468 | 35156 ft | 467 kts | 160° |
| 2026-04-29 20:00 | 45.01486 | 47.23973 | 35183 ft | 459 kts | 175° |
| 2026-04-29 20:00 | 44.95155 | 47.25244 | 35171 ft | 459 kts | 175° |
| 2026-04-29 20:01 | 44.88824 | 47.26504 | 35168 ft | 460 kts | 175° |
| 2026-04-29 20:01 | 44.82483 | 47.27769 | 35168 ft | 461 kts | 175° |
| 2026-04-29 20:02 | 44.76172 | 47.29022 | 35164 ft | 461 kts | 175° |
| 2026-04-29 20:02 | 44.71921 | 47.29865 | 35159 ft | 461 kts | 175° |
| 2026-04-29 20:03 | 44.63452 | 47.31541 | 35154 ft | 461 kts | 175° |
| 2026-04-29 20:03 | 44.57090 | 47.32797 | 35155 ft | 462 kts | 175° |
| 2026-04-29 20:04 | 44.50724 | 47.34050 | 35156 ft | 462 kts | 175° |
| 2026-04-29 20:04 | 44.44348 | 47.35303 | 35156 ft | 463 kts | 175° |
| 2026-04-29 20:05 | 44.37965 | 47.36555 | 35159 ft | 463 kts | 175° |
| 2026-04-29 20:05 | 44.32660 | 47.37593 | 35151 ft | 463 kts | 175° |
| 2026-04-29 20:06 | 44.26270 | 47.38840 | 35166 ft | 464 kts | 175° |
| 2026-04-29 20:06 | 44.19863 | 47.40089 | 35161 ft | 465 kts | 175° |
| 2026-04-29 20:07 | 44.13454 | 47.41335 | 35160 ft | 465 kts | 175° |
| 2026-04-29 20:07 | 44.07044 | 47.42579 | 35156 ft | 465 kts | 175° |
| 2026-04-29 20:08 | 44.01711 | 47.43611 | 35157 ft | 466 kts | 175° |
| 2026-04-29 20:08 | 43.94202 | 47.45062 | 35155 ft | 466 kts | 175° |
| 2026-04-29 20:09 | 43.87774 | 47.46301 | 35154 ft | 467 kts | 175° |
| 2026-04-29 20:09 | 43.81341 | 47.47538 | 35157 ft | 467 kts | 175° |
| 2026-04-29 20:10 | 43.74895 | 47.48775 | 35154 ft | 468 kts | 175° |
| 2026-04-29 20:10 | 43.68486 | 47.50002 | 35156 ft | 468 kts | 175° |
| 2026-04-29 20:11 | 43.62023 | 47.51237 | 35156 ft | 469 kts | 175° |
| 2026-04-29 20:11 | 43.55561 | 47.52469 | 35157 ft | 469 kts | 175° |
| 2026-04-29 20:12 | 43.49089 | 47.53700 | 35158 ft | 469 kts | 175° |
| 2026-04-29 20:12 | 43.42613 | 47.54929 | 35154 ft | 470 kts | 175° |
| 2026-04-29 20:13 | 43.36132 | 47.56157 | 35157 ft | 470 kts | 175° |
| 2026-04-29 20:13 | 43.29643 | 47.57383 | 35156 ft | 471 kts | 175° |
| 2026-04-29 20:14 | 43.23143 | 47.58609 | 35156 ft | 471 kts | 175° |
| 2026-04-29 20:14 | 43.16642 | 47.59832 | 35157 ft | 472 kts | 175° |
| 2026-04-29 20:15 | 43.10131 | 47.61055 | 35152 ft | 472 kts | 175° |
| 2026-04-29 20:15 | 43.03660 | 47.62268 | 35153 ft | 472 kts | 175° |
| 2026-04-29 20:16 | 42.97151 | 47.63485 | 35153 ft | 473 kts | 175° |
| 2026-04-29 20:16 | 42.90645 | 47.63417 | 35185 ft | 467 kts | 193° |
| 2026-04-29 20:17 | 42.84588 | 47.60486 | 35168 ft | 462 kts | 212° |
| 2026-04-29 20:17 | 42.79599 | 47.55085 | 35192 ft | 459 kts | 229° |
| 2026-04-29 20:18 | 42.76159 | 47.47795 | 35170 ft | 461 kts | 247° |
| 2026-04-29 20:18 | 42.74325 | 47.39433 | 35174 ft | 462 kts | 253° |
| 2026-04-29 20:19 | 42.72725 | 47.30975 | 35178 ft | 462 kts | 254° |
| 2026-04-29 20:19 | 42.71122 | 47.22517 | 35181 ft | 461 kts | 253° |
| 2026-04-29 20:20 | 42.69521 | 47.14135 | 35180 ft | 461 kts | 254° |
| 2026-04-29 20:20 | 42.67909 | 47.05700 | 35178 ft | 461 kts | 253° |
| 2026-04-29 20:21 | 42.66287 | 46.97276 | 35183 ft | 461 kts | 253° |
| 2026-04-29 20:21 | 42.64662 | 46.88856 | 35184 ft | 460 kts | 253° |
| 2026-04-29 20:22 | 42.63032 | 46.80456 | 35170 ft | 460 kts | 253° |
| 2026-04-29 20:22 | 42.61399 | 46.72071 | 35170 ft | 459 kts | 253° |
| 2026-04-29 20:23 | 42.59760 | 46.63693 | 35169 ft | 459 kts | 253° |
| 2026-04-29 20:23 | 42.58116 | 46.55324 | 35167 ft | 458 kts | 253° |
| 2026-04-29 20:24 | 42.56470 | 46.46979 | 35159 ft | 458 kts | 253° |
| 2026-04-29 20:24 | 42.54818 | 46.38645 | 35158 ft | 457 kts | 253° |
| 2026-04-29 20:25 | 42.53163 | 46.30325 | 35150 ft | 457 kts | 253° |
| 2026-04-29 20:25 | 42.51501 | 46.22006 | 35151 ft | 457 kts | 253° |
| 2026-04-29 20:26 | 42.49846 | 46.13755 | 35150 ft | 457 kts | 253° |
| 2026-04-29 20:26 | 42.48174 | 46.05458 | 35141 ft | 456 kts | 253° |
| 2026-04-29 20:27 | 42.46771 | 45.98517 | 35135 ft | 455 kts | 253° |
| 2026-04-29 20:27 | 42.44818 | 45.88900 | 35128 ft | 455 kts | 253° |
| 2026-04-29 20:28 | 42.43135 | 45.80645 | 35138 ft | 455 kts | 253° |
| 2026-04-29 20:28 | 42.41684 | 45.72293 | 35121 ft | 455 kts | 257° |
| 2026-04-29 20:29 | 42.40440 | 45.63892 | 35123 ft | 455 kts | 257° |
| 2026-04-29 20:29 | 42.39186 | 45.55498 | 35128 ft | 455 kts | 257° |
| 2026-04-29 20:30 | 42.37930 | 45.47116 | 35120 ft | 455 kts | 257° |
| 2026-04-29 20:30 | 42.36665 | 45.38736 | 35115 ft | 454 kts | 257° |
| 2026-04-29 20:31 | 42.35396 | 45.30362 | 35114 ft | 455 kts | 257° |
| 2026-04-29 20:31 | 42.34121 | 45.22000 | 35115 ft | 454 kts | 257° |
| 2026-04-29 20:32 | 42.32843 | 45.13652 | 35116 ft | 453 kts | 257° |
| 2026-04-29 20:32 | 42.31567 | 45.05363 | 35123 ft | 454 kts | 256° |
| 2026-04-29 20:33 | 42.30276 | 44.97024 | 35125 ft | 453 kts | 256° |
| 2026-04-29 20:33 | 42.28982 | 44.88702 | 35129 ft | 452 kts | 256° |
| 2026-04-29 20:34 | 42.27683 | 44.80390 | 35125 ft | 452 kts | 256° |
| 2026-04-29 20:34 | 42.26380 | 44.72092 | 35131 ft | 452 kts | 256° |
| 2026-04-29 20:35 | 42.25071 | 44.63804 | 35134 ft | 451 kts | 256° |
| 2026-04-29 20:35 | 42.23758 | 44.55530 | 35133 ft | 451 kts | 256° |
| 2026-04-29 20:36 | 42.22439 | 44.47258 | 35139 ft | 450 kts | 256° |
| 2026-04-29 20:36 | 42.21117 | 44.39005 | 35143 ft | 450 kts | 256° |
| 2026-04-29 20:37 | 42.19789 | 44.30761 | 35142 ft | 449 kts | 256° |
| 2026-04-29 20:37 | 42.18458 | 44.22535 | 35154 ft | 449 kts | 256° |
| 2026-04-29 20:38 | 42.17120 | 44.14310 | 35157 ft | 449 kts | 256° |
| 2026-04-29 20:38 | 42.15779 | 44.06098 | 35164 ft | 448 kts | 256° |
| 2026-04-29 20:39 | 42.14443 | 43.97957 | 35166 ft | 447 kts | 256° |
| 2026-04-29 20:39 | 42.13093 | 43.89776 | 35173 ft | 447 kts | 256° |
| 2026-04-29 20:40 | 42.11740 | 43.81608 | 35178 ft | 447 kts | 256° |
| 2026-04-29 20:40 | 42.10381 | 43.73445 | 35184 ft | 447 kts | 256° |
| 2026-04-29 20:41 | 42.09010 | 43.65289 | 35186 ft | 446 kts | 254° |
| 2026-04-29 20:41 | 42.07222 | 43.57296 | 35188 ft | 446 kts | 252° |
| 2026-04-29 20:42 | 42.05416 | 43.49315 | 35197 ft | 446 kts | 252° |
| 2026-04-29 20:42 | 42.03596 | 43.41335 | 35196 ft | 446 kts | 252° |
| 2026-04-29 20:43 | 42.01774 | 43.33352 | 35191 ft | 446 kts | 252° |
| 2026-04-29 20:43 | 41.99944 | 43.25377 | 35198 ft | 446 kts | 252° |
| 2026-04-29 20:44 | 41.98123 | 43.17462 | 35182 ft | 446 kts | 252° |
| 2026-04-29 20:44 | 41.96284 | 43.09499 | 35184 ft | 446 kts | 252° |
| 2026-04-29 20:45 | 41.94440 | 43.01546 | 35200 ft | 446 kts | 252° |
| 2026-04-29 20:45 | 41.92588 | 42.93585 | 35182 ft | 446 kts | 252° |
| 2026-04-29 20:46 | 41.90734 | 42.85642 | 35169 ft | 446 kts | 252° |
| 2026-04-29 20:46 | 41.88845 | 42.77717 | 35177 ft | 446 kts | 251° |
| 2026-04-29 20:47 | 41.86921 | 42.69801 | 35176 ft | 446 kts | 252° |
| 2026-04-29 20:47 | 41.85323 | 42.63167 | 35170 ft | 447 kts | 252° |
| 2026-04-29 20:48 | 41.83079 | 42.53954 | 35172 ft | 447 kts | 252° |
| 2026-04-29 20:48 | 41.81151 | 42.46038 | 35165 ft | 447 kts | 251° |
| 2026-04-29 20:49 | 41.79213 | 42.38124 | 35167 ft | 447 kts | 252° |
| 2026-04-29 20:49 | 41.77269 | 42.30207 | 35188 ft | 448 kts | 252° |
| 2026-04-29 20:50 | 41.75317 | 42.22283 | 35188 ft | 448 kts | 251° |
| 2026-04-29 20:50 | 41.73357 | 42.14358 | 35193 ft | 449 kts | 252° |
| 2026-04-29 20:51 | 41.71388 | 42.06420 | 35189 ft | 450 kts | 252° |
| 2026-04-29 20:51 | 41.69431 | 41.98525 | 35190 ft | 450 kts | 252° |
| 2026-04-29 20:52 | 41.67773 | 41.91871 | 35187 ft | 450 kts | 252° |
| 2026-04-29 20:52 | 41.65790 | 41.83933 | 35188 ft | 450 kts | 252° |
| 2026-04-29 20:53 | 41.63795 | 41.75972 | 35191 ft | 452 kts | 252° |
| 2026-04-29 20:53 | 41.61792 | 41.68010 | 35190 ft | 452 kts | 252° |
| 2026-04-29 20:54 | 41.58476 | 41.56216 | 35191 ft | 453 kts | 248° |
| 2026-04-29 20:55 | 41.56022 | 41.48521 | 35190 ft | 453 kts | 248° |
| 2026-04-29 20:55 | 41.53432 | 41.40840 | 35193 ft | 454 kts | 246° |
| 2026-04-29 20:56 | 41.50772 | 41.33189 | 35193 ft | 454 kts | 246° |
| 2026-04-29 20:56 | 41.48083 | 41.25554 | 35194 ft | 455 kts | 246° |
| 2026-04-29 20:57 | 41.45396 | 41.17912 | 35191 ft | 455 kts | 246° |
| 2026-04-29 20:57 | 41.42696 | 41.10268 | 35195 ft | 455 kts | 246° |
| 2026-04-29 20:58 | 41.39996 | 41.02638 | 35191 ft | 455 kts | 246° |
| 2026-04-29 20:58 | 41.37286 | 40.95003 | 35196 ft | 455 kts | 246° |
| 2026-04-29 20:59 | 41.34574 | 40.87383 | 35196 ft | 455 kts | 246° |
| 2026-04-29 20:59 | 41.31857 | 40.79770 | 35192 ft | 455 kts | 246° |
| 2026-04-29 21:00 | 41.29150 | 40.72205 | 35197 ft | 456 kts | 247° |
| 2026-04-29 21:00 | 41.26424 | 40.64606 | 35190 ft | 455 kts | 247° |
| 2026-04-29 21:01 | 41.23693 | 40.57013 | 35187 ft | 455 kts | 247° |
| 2026-04-29 21:01 | 41.20959 | 40.49432 | 35190 ft | 455 kts | 247° |
| 2026-04-29 21:02 | 41.18218 | 40.41854 | 35196 ft | 455 kts | 247° |
| 2026-04-29 21:02 | 41.15474 | 40.34284 | 35198 ft | 455 kts | 247° |
| 2026-04-29 21:03 | 41.12724 | 40.26719 | 35197 ft | 455 kts | 247° |
| 2026-04-29 21:03 | 41.09969 | 40.19162 | 35194 ft | 455 kts | 247° |
| 2026-04-29 21:04 | 41.07211 | 40.11614 | 35199 ft | 455 kts | 247° |
| 2026-04-29 21:04 | 41.04450 | 40.04080 | 35199 ft | 454 kts | 247° |
| 2026-04-29 21:05 | 41.01683 | 39.96548 | 35200 ft | 454 kts | 247° |
| 2026-04-29 21:05 | 40.98931 | 39.89076 | 35205 ft | 455 kts | 247° |
| 2026-04-29 21:06 | 40.96153 | 39.81552 | 35204 ft | 455 kts | 247° |
| 2026-04-29 21:06 | 40.93367 | 39.74028 | 35212 ft | 455 kts | 247° |
| 2026-04-29 21:07 | 40.90577 | 39.66512 | 35203 ft | 456 kts | 247° |
| 2026-04-29 21:07 | 40.87781 | 39.58999 | 35200 ft | 456 kts | 247° |
| 2026-04-29 21:08 | 40.84976 | 39.51482 | 35190 ft | 456 kts | 247° |
| 2026-04-29 21:08 | 40.82169 | 39.43980 | 35172 ft | 455 kts | 247° |
| 2026-04-29 21:09 | 40.79359 | 39.36489 | 35160 ft | 455 kts | 247° |
| 2026-04-29 21:09 | 40.76544 | 39.29002 | 35160 ft | 455 kts | 247° |
| 2026-04-29 21:10 | 40.73722 | 39.21515 | 35151 ft | 456 kts | 247° |
| 2026-04-29 21:10 | 40.70895 | 39.14037 | 35141 ft | 456 kts | 247° |
| 2026-04-29 21:11 | 40.68061 | 39.06557 | 35140 ft | 456 kts | 247° |
| 2026-04-29 21:11 | 40.65222 | 38.99084 | 35139 ft | 457 kts | 247° |
| 2026-04-29 21:12 | 40.62391 | 38.91651 | 35137 ft | 457 kts | 247° |
| 2026-04-29 21:12 | 40.59536 | 38.84176 | 35125 ft | 457 kts | 247° |
| 2026-04-29 21:13 | 40.56681 | 38.76716 | 35127 ft | 457 kts | 247° |
| 2026-04-29 21:13 | 40.53814 | 38.69245 | 35119 ft | 457 kts | 246° |
| 2026-04-29 21:14 | 40.50945 | 38.61788 | 35123 ft | 457 kts | 246° |
| 2026-04-29 21:14 | 40.48067 | 38.54328 | 35120 ft | 457 kts | 246° |
| 2026-04-29 21:15 | 40.45187 | 38.46880 | 35119 ft | 457 kts | 246° |
| 2026-04-29 21:15 | 40.42306 | 38.39447 | 35129 ft | 457 kts | 246° |
| 2026-04-29 21:16 | 40.39418 | 38.32017 | 35132 ft | 457 kts | 246° |
| 2026-04-29 21:16 | 40.36542 | 38.24634 | 35122 ft | 457 kts | 246° |
| 2026-04-29 21:17 | 40.33651 | 38.17234 | 35110 ft | 456 kts | 246° |
| 2026-04-29 21:17 | 40.30209 | 38.10198 | 35126 ft | 461 kts | 239° |
| 2026-04-29 21:18 | 40.26520 | 38.03329 | 35124 ft | 461 kts | 239° |
| 2026-04-29 21:18 | 40.22833 | 37.96465 | 35125 ft | 461 kts | 239° |
| 2026-04-29 21:19 | 40.19144 | 37.89620 | 35114 ft | 460 kts | 239° |
| 2026-04-29 21:19 | 40.15446 | 37.82770 | 35118 ft | 461 kts | 239° |
| 2026-04-29 21:20 | 40.11745 | 37.75930 | 35113 ft | 461 kts | 239° |
| 2026-04-29 21:20 | 40.08038 | 37.69094 | 35115 ft | 461 kts | 239° |
| 2026-04-29 21:21 | 40.04322 | 37.62256 | 35115 ft | 462 kts | 238° |
| 2026-04-29 21:21 | 40.00602 | 37.55426 | 35111 ft | 462 kts | 238° |
| 2026-04-29 21:22 | 39.96899 | 37.48642 | 35119 ft | 462 kts | 238° |
| 2026-04-29 21:22 | 39.93162 | 37.41810 | 35110 ft | 462 kts | 238° |
| 2026-04-29 21:23 | 39.89426 | 37.34993 | 35106 ft | 462 kts | 238° |
| 2026-04-29 21:23 | 39.85684 | 37.28182 | 35115 ft | 463 kts | 238° |
| 2026-04-29 21:24 | 39.81936 | 37.21375 | 35127 ft | 463 kts | 238° |
| 2026-04-29 21:24 | 39.78179 | 37.14565 | 35133 ft | 463 kts | 238° |
| 2026-04-29 21:25 | 39.74414 | 37.07756 | 35145 ft | 463 kts | 238° |
| 2026-04-29 21:25 | 39.70647 | 37.00957 | 35142 ft | 463 kts | 238° |
| 2026-04-29 21:26 | 39.66879 | 36.94172 | 35141 ft | 464 kts | 238° |
| 2026-04-29 21:26 | 39.63108 | 36.87394 | 35134 ft | 463 kts | 238° |
| 2026-04-29 21:27 | 39.59967 | 36.81761 | 35127 ft | 463 kts | 238° |
| 2026-04-29 21:27 | 39.55545 | 36.73847 | 35118 ft | 464 kts | 238° |
| 2026-04-29 21:28 | 39.51780 | 36.67125 | 35100 ft | 464 kts | 237° |
| 2026-04-29 21:28 | 39.47986 | 36.60365 | 35096 ft | 464 kts | 237° |
| 2026-04-29 21:29 | 39.44191 | 36.53617 | 35093 ft | 464 kts | 237° |
| 2026-04-29 21:29 | 39.40390 | 36.46872 | 35098 ft | 464 kts | 237° |
| 2026-04-29 21:30 | 39.36581 | 36.40129 | 35092 ft | 464 kts | 237° |
| 2026-04-29 21:30 | 39.32764 | 36.33385 | 35094 ft | 464 kts | 237° |
| 2026-04-29 21:31 | 39.28942 | 36.26647 | 35089 ft | 465 kts | 237° |
| 2026-04-29 21:31 | 39.25119 | 36.19921 | 35088 ft | 465 kts | 237° |
| 2026-04-29 21:32 | 39.21313 | 36.13239 | 35092 ft | 465 kts | 237° |
| 2026-04-29 21:32 | 39.17472 | 36.06510 | 35082 ft | 466 kts | 237° |
| 2026-04-29 21:33 | 39.13238 | 36.00160 | 35088 ft | 471 kts | 228° |
| 2026-04-29 21:33 | 39.08525 | 35.94293 | 35091 ft | 471 kts | 227° |
| 2026-04-29 21:34 | 39.03818 | 35.88421 | 35082 ft | 471 kts | 227° |
| 2026-04-29 21:34 | 38.99107 | 35.82564 | 35074 ft | 471 kts | 227° |
| 2026-04-29 21:35 | 38.94390 | 35.76708 | 35084 ft | 471 kts | 228° |
| 2026-04-29 21:35 | 38.89779 | 35.70742 | 35087 ft | 471 kts | 228° |
| 2026-04-29 21:36 | 38.85145 | 35.64802 | 35082 ft | 471 kts | 229° |
| 2026-04-29 21:36 | 38.80534 | 35.58845 | 35080 ft | 471 kts | 228° |
| 2026-04-29 21:37 | 38.76678 | 35.53910 | 35078 ft | 472 kts | 228° |
| 2026-04-29 21:37 | 38.71261 | 35.46954 | 35077 ft | 472 kts | 228° |
| 2026-04-29 21:38 | 38.66613 | 35.41016 | 35076 ft | 472 kts | 228° |
| 2026-04-29 21:38 | 38.61994 | 35.35115 | 35071 ft | 472 kts | 228° |
| 2026-04-29 21:39 | 38.57333 | 35.29178 | 35071 ft | 473 kts | 228° |
| 2026-04-29 21:39 | 38.52673 | 35.23259 | 35068 ft | 473 kts | 226° |
| 2026-04-29 21:40 | 38.48510 | 35.18708 | 35082 ft | 475 kts | 223° |
| 2026-04-29 21:40 | 38.43450 | 35.13288 | 35076 ft | 475 kts | 224° |
| 2026-04-29 21:41 | 38.38399 | 35.07864 | 35081 ft | 475 kts | 223° |
| 2026-04-29 21:41 | 38.33553 | 35.02186 | 35090 ft | 473 kts | 227° |
| 2026-04-29 21:42 | 38.28755 | 34.96434 | 35086 ft | 474 kts | 226° |
| 2026-04-29 21:42 | 38.23962 | 34.90678 | 35081 ft | 474 kts | 227° |
| 2026-04-29 21:43 | 38.19177 | 34.84913 | 35077 ft | 474 kts | 226° |
| 2026-04-29 21:43 | 38.14369 | 34.79151 | 35081 ft | 475 kts | 226° |
| 2026-04-29 21:44 | 38.09556 | 34.73383 | 35071 ft | 476 kts | 226° |
| 2026-04-29 21:44 | 38.04736 | 34.67624 | 35062 ft | 476 kts | 226° |
| 2026-04-29 21:45 | 37.99943 | 34.61905 | 35054 ft | 476 kts | 226° |
| 2026-04-29 21:45 | 37.95120 | 34.56162 | 35041 ft | 476 kts | 226° |
| 2026-04-29 21:46 | 37.90290 | 34.50421 | 35040 ft | 476 kts | 226° |
| 2026-04-29 21:46 | 37.85460 | 34.44678 | 35044 ft | 476 kts | 226° |
| 2026-04-29 21:47 | 37.80628 | 34.38938 | 35042 ft | 477 kts | 226° |
| 2026-04-29 21:47 | 37.75790 | 34.33207 | 35042 ft | 477 kts | 226° |
| 2026-04-29 21:48 | 37.70948 | 34.27478 | 35064 ft | 477 kts | 226° |
| 2026-04-29 21:48 | 37.66102 | 34.21756 | 35063 ft | 477 kts | 226° |
| 2026-04-29 21:49 | 37.61255 | 34.16044 | 35083 ft | 477 kts | 226° |
| 2026-04-29 21:49 | 37.56403 | 34.10337 | 35084 ft | 477 kts | 225° |
| 2026-04-29 21:50 | 37.51544 | 34.04631 | 35080 ft | 477 kts | 225° |
| 2026-04-29 21:50 | 37.46680 | 33.98932 | 35083 ft | 477 kts | 225° |
| 2026-04-29 21:51 | 37.41810 | 33.93238 | 35082 ft | 478 kts | 225° |
| 2026-04-29 21:51 | 37.34495 | 33.84723 | 35077 ft | 478 kts | 225° |
| 2026-04-29 21:52 | 37.29643 | 33.79085 | 35078 ft | 478 kts | 225° |
| 2026-04-29 21:52 | 37.24759 | 33.73421 | 35080 ft | 478 kts | 225° |
| 2026-04-29 21:53 | 37.19871 | 33.67762 | 35080 ft | 478 kts | 225° |
| 2026-04-29 21:53 | 37.14982 | 33.62114 | 35080 ft | 477 kts | 225° |
| 2026-04-29 21:54 | 37.10088 | 33.56470 | 35077 ft | 478 kts | 225° |
| 2026-04-29 21:54 | 37.05186 | 33.50827 | 35076 ft | 478 kts | 225° |
| 2026-04-29 21:55 | 37.00279 | 33.45188 | 35072 ft | 478 kts | 225° |
| 2026-04-29 21:55 | 36.95372 | 33.39560 | 35073 ft | 478 kts | 225° |
| 2026-04-29 21:56 | 36.90654 | 33.33736 | 35092 ft | 476 kts | 235° |
| 2026-04-29 21:56 | 36.87575 | 33.26506 | 35095 ft | 471 kts | 254° |
| 2026-04-29 21:57 | 36.86674 | 33.18464 | 35095 ft | 469 kts | 272° |
| 2026-04-29 21:57 | 36.86918 | 33.10373 | 35081 ft | 469 kts | 272° |
| 2026-04-29 21:58 | 36.87190 | 33.02226 | 35085 ft | 470 kts | 272° |
| 2026-04-29 21:58 | 36.87437 | 32.94081 | 35087 ft | 469 kts | 272° |
| 2026-04-29 21:59 | 36.87690 | 32.85952 | 35089 ft | 468 kts | 272° |
| 2026-04-29 21:59 | 36.87930 | 32.77830 | 35094 ft | 468 kts | 272° |
| 2026-04-29 22:00 | 36.88168 | 32.69707 | 35100 ft | 468 kts | 272° |
| 2026-04-29 22:00 | 36.88399 | 32.61579 | 35091 ft | 468 kts | 272° |
| 2026-04-29 22:01 | 36.88590 | 32.53461 | 35093 ft | 467 kts | 268° |
| 2026-04-29 22:01 | 36.87263 | 32.45535 | 35112 ft | 470 kts | 249° |
| 2026-04-29 22:02 | 36.84056 | 32.38384 | 35106 ft | 473 kts | 240° |
| 2026-04-29 22:02 | 36.80572 | 32.31464 | 35096 ft | 474 kts | 239° |
| 2026-04-29 22:03 | 36.77075 | 32.24497 | 35089 ft | 474 kts | 239° |
| 2026-04-29 22:03 | 36.73562 | 32.17529 | 35085 ft | 474 kts | 239° |
| 2026-04-29 22:04 | 36.70046 | 32.10564 | 35075 ft | 475 kts | 239° |
| 2026-04-29 22:04 | 36.66516 | 32.03587 | 35074 ft | 476 kts | 239° |
| 2026-04-29 22:05 | 36.62982 | 31.96617 | 35064 ft | 476 kts | 239° |
| 2026-04-29 22:06 | 36.57669 | 31.86163 | 35049 ft | 476 kts | 239° |
| 2026-04-29 22:06 | 36.54121 | 31.79200 | 35043 ft | 477 kts | 239° |
| 2026-04-29 22:07 | 36.50567 | 31.72240 | 35039 ft | 477 kts | 239° |
| 2026-04-29 22:07 | 36.47007 | 31.65282 | 35038 ft | 477 kts | 239° |
| 2026-04-29 22:08 | 36.43464 | 31.58373 | 35038 ft | 478 kts | 239° |
| 2026-04-29 22:08 | 36.39890 | 31.51416 | 35039 ft | 478 kts | 239° |
| 2026-04-29 22:09 | 36.36308 | 31.44460 | 35043 ft | 478 kts | 239° |
| 2026-04-29 22:09 | 36.32722 | 31.37509 | 35041 ft | 478 kts | 239° |
| 2026-04-29 22:10 | 36.29130 | 31.30560 | 35040 ft | 479 kts | 239° |
| 2026-04-29 22:10 | 36.25528 | 31.23607 | 35039 ft | 479 kts | 239° |
| 2026-04-29 22:11 | 36.21924 | 31.16663 | 35044 ft | 479 kts | 239° |
| 2026-04-29 22:11 | 36.18317 | 31.09729 | 35038 ft | 478 kts | 239° |
| 2026-04-29 22:12 | 36.14710 | 31.02807 | 35040 ft | 479 kts | 239° |
| 2026-04-29 22:12 | 36.11095 | 30.95885 | 35039 ft | 479 kts | 239° |
| 2026-04-29 22:13 | 36.07055 | 30.89330 | 35052 ft | 483 kts | 224° |
| 2026-04-29 22:13 | 36.01453 | 30.84825 | 35058 ft | 490 kts | 204° |
| 2026-04-29 22:13 | 35.98191 | 30.83570 | 35059 ft | 494 kts | 193° |
| 2026-04-29 22:14 | 35.94766 | 30.83079 | 35062 ft | 498 kts | 182° |
| 2026-04-29 22:14 | 35.87818 | 30.83408 | 35046 ft | 500 kts | 179° |
| 2026-04-29 22:15 | 35.80859 | 30.83857 | 35038 ft | 500 kts | 179° |
| 2026-04-29 22:15 | 35.73895 | 30.84259 | 35045 ft | 501 kts | 179° |
| 2026-04-29 22:16 | 35.66931 | 30.84688 | 35040 ft | 501 kts | 179° |
| 2026-04-29 22:16 | 35.60006 | 30.85034 | 35046 ft | 500 kts | 182° |
| 2026-04-29 22:17 | 35.53033 | 30.85298 | 35042 ft | 502 kts | 180° |
| 2026-04-29 22:17 | 35.46052 | 30.85525 | 35043 ft | 502 kts | 181° |
| 2026-04-29 22:18 | 35.39054 | 30.85759 | 35043 ft | 503 kts | 181° |
| 2026-04-29 22:18 | 35.32058 | 30.85998 | 35040 ft | 503 kts | 181° |
| 2026-04-29 22:19 | 35.25050 | 30.86227 | 35041 ft | 504 kts | 181° |
| 2026-04-29 22:19 | 35.18044 | 30.86465 | 35041 ft | 504 kts | 181° |
| 2026-04-29 22:20 | 35.11021 | 30.86697 | 35035 ft | 504 kts | 181° |
| 2026-04-29 22:20 | 35.04002 | 30.86933 | 35037 ft | 505 kts | 181° |
| 2026-04-29 22:21 | 34.96974 | 30.87165 | 35038 ft | 505 kts | 181° |
| 2026-04-29 22:21 | 34.89939 | 30.87399 | 35037 ft | 506 kts | 181° |
| 2026-04-29 22:22 | 34.82945 | 30.87630 | 35034 ft | 506 kts | 181° |
| 2026-04-29 22:22 | 34.75898 | 30.87864 | 35032 ft | 506 kts | 181° |
| 2026-04-29 22:23 | 34.68849 | 30.88096 | 35034 ft | 507 kts | 181° |
| 2026-04-29 22:23 | 34.61800 | 30.88329 | 35029 ft | 507 kts | 181° |
| 2026-04-29 22:24 | 34.54740 | 30.88638 | 35029 ft | 508 kts | 181° |
| 2026-04-29 22:24 | 34.47667 | 30.88964 | 35032 ft | 508 kts | 181° |
| 2026-04-29 22:25 | 34.40588 | 30.89269 | 35034 ft | 509 kts | 181° |
| 2026-04-29 22:25 | 34.33506 | 30.89592 | 35041 ft | 509 kts | 181° |
| 2026-04-29 22:26 | 34.26466 | 30.89899 | 35033 ft | 510 kts | 181° |
| 2026-04-29 22:26 | 34.19369 | 30.90218 | 35034 ft | 511 kts | 181° |
| 2026-04-29 22:27 | 34.12252 | 30.90530 | 35035 ft | 511 kts | 181° |
| 2026-04-29 22:27 | 34.05142 | 30.90846 | 35041 ft | 511 kts | 181° |
| 2026-04-29 22:28 | 33.99229 | 30.91106 | 35035 ft | 512 kts | 181° |
| 2026-04-29 22:28 | 33.92103 | 30.91420 | 35036 ft | 512 kts | 182° |
| 2026-04-29 22:29 | 33.84982 | 30.91734 | 35030 ft | 513 kts | 182° |
| 2026-04-29 22:29 | 33.77847 | 30.92047 | 35034 ft | 513 kts | 182° |
| 2026-04-29 22:30 | 33.70709 | 30.92360 | 35037 ft | 514 kts | 182° |
| 2026-04-29 22:30 | 33.63560 | 30.92672 | 35036 ft | 514 kts | 182° |
| 2026-04-29 22:31 | 33.56407 | 30.92985 | 35036 ft | 514 kts | 182° |
| 2026-04-29 22:31 | 33.49247 | 30.93297 | 35042 ft | 515 kts | 182° |
| 2026-04-29 22:32 | 33.42084 | 30.93609 | 35040 ft | 516 kts | 182° |
| 2026-04-29 22:32 | 33.34949 | 30.93919 | 35044 ft | 516 kts | 182° |
| 2026-04-29 22:33 | 33.27772 | 30.94231 | 35051 ft | 516 kts | 182° |
| 2026-04-29 22:33 | 33.20594 | 30.94542 | 35048 ft | 516 kts | 182° |
| 2026-04-29 22:34 | 33.13410 | 30.94852 | 35041 ft | 517 kts | 182° |
| 2026-04-29 22:34 | 33.06214 | 30.95427 | 35052 ft | 520 kts | 179° |
| 2026-04-29 22:35 | 32.99015 | 30.96231 | 35057 ft | 520 kts | 179° |
| 2026-04-29 22:35 | 32.91799 | 30.97040 | 35055 ft | 520 kts | 179° |
| 2026-04-29 22:36 | 32.84591 | 30.97845 | 35051 ft | 520 kts | 179° |
| 2026-04-29 22:36 | 32.77381 | 30.98649 | 35044 ft | 520 kts | 179° |
| 2026-04-29 22:37 | 32.70169 | 30.99453 | 35046 ft | 521 kts | 179° |
| 2026-04-29 22:37 | 32.62958 | 31.00254 | 35047 ft | 521 kts | 179° |
| 2026-04-29 22:38 | 32.55787 | 31.01051 | 35050 ft | 521 kts | 179° |
| 2026-04-29 22:38 | 32.48562 | 31.01852 | 35050 ft | 521 kts | 179° |
| 2026-04-29 22:39 | 32.41333 | 31.02652 | 35050 ft | 522 kts | 180° |
| 2026-04-29 22:39 | 32.34094 | 31.03451 | 35063 ft | 522 kts | 180° |
| 2026-04-29 22:40 | 32.26856 | 31.04250 | 35057 ft | 523 kts | 180° |
| 2026-04-29 22:40 | 32.19610 | 31.05048 | 35053 ft | 523 kts | 180° |
| 2026-04-29 22:41 | 32.12364 | 31.05845 | 35054 ft | 523 kts | 180° |
| 2026-04-29 22:41 | 32.05106 | 31.06642 | 35055 ft | 523 kts | 180° |
| 2026-04-29 22:42 | 31.97849 | 31.07430 | 35054 ft | 524 kts | 180° |
| 2026-04-29 22:42 | 31.90589 | 31.08208 | 35047 ft | 524 kts | 180° |
| 2026-04-29 22:43 | 31.83373 | 31.08986 | 35047 ft | 524 kts | 180° |
| 2026-04-29 22:43 | 31.76102 | 31.09765 | 35052 ft | 525 kts | 180° |
| 2026-04-29 22:44 | 31.68827 | 31.10546 | 35048 ft | 525 kts | 180° |
| 2026-04-29 22:44 | 31.61552 | 31.11324 | 35049 ft | 525 kts | 180° |
| 2026-04-29 22:45 | 31.54270 | 31.12102 | 35049 ft | 525 kts | 180° |
| 2026-04-29 22:45 | 31.46993 | 31.13352 | 35056 ft | 529 kts | 176° |
| 2026-04-29 22:46 | 31.39714 | 31.14727 | 35057 ft | 529 kts | 176° |
| 2026-04-29 22:46 | 31.32441 | 31.16083 | 35050 ft | 529 kts | 176° |
| 2026-04-29 22:47 | 31.25158 | 31.17450 | 35047 ft | 529 kts | 176° |
| 2026-04-29 22:47 | 31.17879 | 31.18805 | 35043 ft | 529 kts | 176° |
| 2026-04-29 22:48 | 31.10609 | 31.20160 | 35044 ft | 529 kts | 176° |
| 2026-04-29 22:48 | 31.03335 | 31.21512 | 35042 ft | 529 kts | 176° |
| 2026-04-29 22:49 | 30.96063 | 31.22863 | 35048 ft | 529 kts | 176° |
| 2026-04-29 22:49 | 30.88847 | 31.24200 | 35040 ft | 529 kts | 176° |
| 2026-04-29 22:50 | 30.81582 | 31.25545 | 35039 ft | 529 kts | 176° |
| 2026-04-29 22:50 | 30.74309 | 31.26889 | 35044 ft | 529 kts | 177° |
| 2026-04-29 22:51 | 30.67042 | 31.28230 | 35042 ft | 529 kts | 177° |
| 2026-04-29 22:51 | 30.56142 | 31.30237 | 35042 ft | 529 kts | 177° |
| 2026-04-29 22:52 | 30.48873 | 31.31574 | 35035 ft | 529 kts | 177° |
| 2026-04-29 22:52 | 30.41598 | 31.32910 | 35033 ft | 529 kts | 177° |
| 2026-04-29 22:53 | 30.34338 | 31.34245 | 35035 ft | 528 kts | 177° |
| 2026-04-29 22:53 | 30.27097 | 31.35572 | 35032 ft | 529 kts | 177° |
| 2026-04-29 22:54 | 30.19842 | 31.36901 | 35044 ft | 529 kts | 177° |
| 2026-04-29 22:54 | 30.12557 | 31.38359 | 35062 ft | 535 kts | 170° |
| 2026-04-29 22:55 | 30.05671 | 31.41937 | 35067 ft | 552 kts | 149° |
| 2026-04-29 22:55 | 29.99474 | 31.47168 | 35044 ft | 555 kts | 148° |
| 2026-04-29 22:56 | 29.93261 | 31.52498 | 35046 ft | 554 kts | 148° |
| 2026-04-29 22:56 | 29.87068 | 31.57755 | 35041 ft | 555 kts | 148° |
| 2026-04-29 22:57 | 29.80883 | 31.63030 | 35039 ft | 554 kts | 148° |
| 2026-04-29 22:57 | 29.74668 | 31.68301 | 35036 ft | 553 kts | 148° |
| 2026-04-29 22:58 | 29.68461 | 31.73568 | 35029 ft | 554 kts | 149° |
| 2026-04-29 22:58 | 29.62267 | 31.78810 | 35035 ft | 555 kts | 149° |
| 2026-04-29 22:59 | 29.56055 | 31.84063 | 35029 ft | 556 kts | 149° |
| 2026-04-29 22:59 | 29.49820 | 31.89325 | 35032 ft | 558 kts | 149° |
| 2026-04-29 23:00 | 29.43551 | 31.94610 | 35030 ft | 556 kts | 149° |
| 2026-04-29 23:00 | 29.37329 | 31.99843 | 35044 ft | 557 kts | 149° |
| 2026-04-29 23:01 | 29.31062 | 32.05110 | 35035 ft | 557 kts | 150° |
| 2026-04-29 23:01 | 29.24805 | 32.10357 | 35030 ft | 557 kts | 150° |
| 2026-04-29 23:02 | 29.18578 | 32.15572 | 35033 ft | 557 kts | 150° |
| 2026-04-29 23:02 | 29.12357 | 32.20776 | 35028 ft | 556 kts | 150° |
| 2026-04-29 23:03 | 29.06111 | 32.25989 | 35028 ft | 556 kts | 150° |
| 2026-04-29 23:03 | 28.99840 | 32.31218 | 35025 ft | 556 kts | 150° |
| 2026-04-29 23:04 | 28.93610 | 32.36403 | 35029 ft | 555 kts | 150° |
| 2026-04-29 23:04 | 28.87359 | 32.41599 | 35022 ft | 555 kts | 150° |
| 2026-04-29 23:05 | 28.81110 | 32.46784 | 35033 ft | 555 kts | 150° |
| 2026-04-29 23:05 | 28.74859 | 32.51965 | 35023 ft | 554 kts | 150° |
| 2026-04-29 23:06 | 28.68659 | 32.57093 | 35026 ft | 554 kts | 150° |
| 2026-04-29 23:06 | 28.62395 | 32.62268 | 35024 ft | 553 kts | 150° |
| 2026-04-29 23:07 | 28.56187 | 32.67389 | 35023 ft | 553 kts | 151° |
| 2026-04-29 23:07 | 28.49939 | 32.72536 | 35031 ft | 553 kts | 151° |
| 2026-04-29 23:08 | 28.43734 | 32.77638 | 35017 ft | 553 kts | 151° |
| 2026-04-29 23:08 | 28.37480 | 32.82774 | 35009 ft | 552 kts | 151° |
| 2026-04-29 23:09 | 28.31275 | 32.87862 | 35005 ft | 551 kts | 151° |
| 2026-04-29 23:09 | 28.25047 | 32.92962 | 35000 ft | 551 kts | 151° |
| 2026-04-29 23:10 | 28.18852 | 32.98026 | 34999 ft | 551 kts | 151° |
| 2026-04-29 23:10 | 28.12620 | 33.03114 | 34946 ft | 549 kts | 151° |
| 2026-04-29 23:11 | 28.10571 | 33.04787 | 34708 ft | 548 kts | 151° |